sensor_id;sensor_type;location;lat;lon;timestamp;P1;durP1;ratioP1;P2;durP2;ratioP2
10511;SDS011;5304;48.604;2.096;2022-09-09T00:04:56;7.27;;;1.93;;
10511;SDS011;5304;48.604;2.096;2022-09-09T00:07:53;13.27;;;2.47;;
10511;SDS011;5304;48.604;2.096;2022-09-09T00:10:42;8.60;;;2.43;;
10511;SDS011;5304;48.604;2.096;2022-09-09T00:13:44;7.33;;;2.00;;
10511;SDS011;5304;48.604;2.096;2022-09-09T00:16:33;10.27;;;2.13;;
10511;SDS011;5304;48.604;2.096;2022-09-09T00:19:24;8.23;;;2.07;;
10511;SDS011;5304;48.604;2.096;2022-09-09T00:22:18;7.83;;;2.60;;
10511;SDS011;5304;48.604;2.096;2022-09-09T00:25:11;8.70;;;2.10;;
10511;SDS011;5304;48.604;2.096;2022-09-09T00:28:04;7.63;;;2.00;;
10511;SDS011;5304;48.604;2.096;2022-09-09T00:31:08;7.90;;;2.20;;
10511;SDS011;5304;48.604;2.096;2022-09-09T00:34:02;8.63;;;2.53;;
10511;SDS011;5304;48.604;2.096;2022-09-09T00:36:57;8.17;;;2.10;;
10511;SDS011;5304;48.604;2.096;2022-09-09T00:39:46;6.43;;;1.80;;
10511;SDS011;5304;48.604;2.096;2022-09-09T00:42:41;7.20;;;2.67;;
10511;SDS011;5304;48.604;2.096;2022-09-09T00:48:16;7.00;;;1.77;;
10511;SDS011;5304;48.604;2.096;2022-09-09T00:54:30;8.67;;;2.13;;
10511;SDS011;5304;48.604;2.096;2022-09-09T01:00:19;8.60;;;2.07;;
10511;SDS011;5304;48.604;2.096;2022-09-09T01:03:19;8.33;;;2.47;;
10511;SDS011;5304;48.604;2.096;2022-09-09T01:06:15;9.53;;;2.83;;
10511;SDS011;5304;48.604;2.096;2022-09-09T01:14:56;11.60;;;2.20;;
10511;SDS011;5304;48.604;2.096;2022-09-09T01:18:07;4.17;;;1.87;;
10511;SDS011;5304;48.604;2.096;2022-09-09T01:26:39;9.37;;;2.20;;
10511;SDS011;5304;48.604;2.096;2022-09-09T01:29:26;10.77;;;2.40;;
10511;SDS011;5304;48.604;2.096;2022-09-09T01:38:29;9.40;;;2.53;;
10511;SDS011;5304;48.604;2.096;2022-09-09T01:41:15;12.67;;;2.50;;
10511;SDS011;5304;48.604;2.096;2022-09-09T01:43:59;8.70;;;2.33;;
10511;SDS011;5304;48.604;2.096;2022-09-09T01:46:44;10.07;;;2.73;;
10511;SDS011;5304;48.604;2.096;2022-09-09T01:59:42;9.33;;;2.90;;
10511;SDS011;5304;48.604;2.096;2022-09-09T02:02:40;11.40;;;2.40;;
10511;SDS011;5304;48.604;2.096;2022-09-09T02:05:38;8.57;;;2.53;;
10511;SDS011;5304;48.604;2.096;2022-09-09T02:08:33;9.47;;;2.50;;
10511;SDS011;5304;48.604;2.096;2022-09-09T02:11:27;9.43;;;3.00;;
10511;SDS011;5304;48.604;2.096;2022-09-09T02:14:14;6.67;;;2.13;;
10511;SDS011;5304;48.604;2.096;2022-09-09T02:17:13;9.63;;;2.80;;
10511;SDS011;5304;48.604;2.096;2022-09-09T02:20:19;10.57;;;2.80;;
10511;SDS011;5304;48.604;2.096;2022-09-09T02:23:08;11.27;;;2.93;;
10511;SDS011;5304;48.604;2.096;2022-09-09T02:25:55;10.63;;;2.50;;
10511;SDS011;5304;48.604;2.096;2022-09-09T02:28:42;8.83;;;2.30;;
10511;SDS011;5304;48.604;2.096;2022-09-09T02:31:26;9.30;;;2.47;;
10511;SDS011;5304;48.604;2.096;2022-09-09T02:34:12;5.63;;;2.30;;
10511;SDS011;5304;48.604;2.096;2022-09-09T02:36:59;14.63;;;3.03;;
10511;SDS011;5304;48.604;2.096;2022-09-09T02:39:46;8.93;;;2.60;;
10511;SDS011;5304;48.604;2.096;2022-09-09T02:42:31;9.23;;;2.57;;
10511;SDS011;5304;48.604;2.096;2022-09-09T02:45:19;7.00;;;2.70;;
10511;SDS011;5304;48.604;2.096;2022-09-09T02:48:20;9.33;;;2.80;;
10511;SDS011;5304;48.604;2.096;2022-09-09T02:57:12;11.53;;;3.10;;
10511;SDS011;5304;48.604;2.096;2022-09-09T03:00:11;8.37;;;2.17;;
10511;SDS011;5304;48.604;2.096;2022-09-09T03:02:56;7.97;;;2.73;;
10511;SDS011;5304;48.604;2.096;2022-09-09T03:05:42;14.40;;;3.03;;
10511;SDS011;5304;48.604;2.096;2022-09-09T03:08:28;10.37;;;3.03;;
10511;SDS011;5304;48.604;2.096;2022-09-09T03:11:12;9.90;;;2.60;;
10511;SDS011;5304;48.604;2.096;2022-09-09T03:13:57;12.00;;;2.90;;
10511;SDS011;5304;48.604;2.096;2022-09-09T03:16:42;9.67;;;2.70;;
10511;SDS011;5304;48.604;2.096;2022-09-09T03:19:27;9.97;;;2.50;;
10511;SDS011;5304;48.604;2.096;2022-09-09T03:22:11;11.93;;;2.80;;
10511;SDS011;5304;48.604;2.096;2022-09-09T03:24:57;10.70;;;2.37;;
10511;SDS011;5304;48.604;2.096;2022-09-09T03:27:42;13.17;;;2.80;;
10511;SDS011;5304;48.604;2.096;2022-09-09T03:30:26;12.67;;;2.63;;
10511;SDS011;5304;48.604;2.096;2022-09-09T03:33:11;16.73;;;3.70;;
10511;SDS011;5304;48.604;2.096;2022-09-09T03:35:56;10.43;;;2.77;;
10511;SDS011;5304;48.604;2.096;2022-09-09T03:38:41;11.97;;;3.00;;
10511;SDS011;5304;48.604;2.096;2022-09-09T03:41:25;13.07;;;3.17;;
10511;SDS011;5304;48.604;2.096;2022-09-09T03:44:10;13.37;;;3.13;;
10511;SDS011;5304;48.604;2.096;2022-09-09T03:46:54;13.27;;;2.67;;
10511;SDS011;5304;48.604;2.096;2022-09-09T03:49:39;20.07;;;2.90;;
10511;SDS011;5304;48.604;2.096;2022-09-09T03:52:23;9.60;;;2.87;;
10511;SDS011;5304;48.604;2.096;2022-09-09T03:55:09;10.27;;;3.20;;
10511;SDS011;5304;48.604;2.096;2022-09-09T03:57:53;8.73;;;3.10;;
10511;SDS011;5304;48.604;2.096;2022-09-09T04:00:38;13.57;;;3.13;;
10511;SDS011;5304;48.604;2.096;2022-09-09T04:03:25;10.57;;;2.90;;
10511;SDS011;5304;48.604;2.096;2022-09-09T04:06:11;10.37;;;2.83;;
10511;SDS011;5304;48.604;2.096;2022-09-09T04:08:58;8.80;;;2.80;;
10511;SDS011;5304;48.604;2.096;2022-09-09T04:11:43;9.73;;;3.03;;
10511;SDS011;5304;48.604;2.096;2022-09-09T04:14:27;12.47;;;3.03;;
10511;SDS011;5304;48.604;2.096;2022-09-09T04:17:12;11.17;;;2.87;;
10511;SDS011;5304;48.604;2.096;2022-09-09T04:19:56;17.83;;;3.60;;
10511;SDS011;5304;48.604;2.096;2022-09-09T04:22:40;7.63;;;2.60;;
10511;SDS011;5304;48.604;2.096;2022-09-09T04:25:25;11.10;;;3.30;;
10511;SDS011;5304;48.604;2.096;2022-09-09T04:28:10;12.50;;;3.20;;
10511;SDS011;5304;48.604;2.096;2022-09-09T04:30:54;10.13;;;3.07;;
10511;SDS011;5304;48.604;2.096;2022-09-09T04:33:42;11.43;;;3.10;;
10511;SDS011;5304;48.604;2.096;2022-09-09T04:36:26;15.67;;;3.47;;
10511;SDS011;5304;48.604;2.096;2022-09-09T04:39:10;12.73;;;2.97;;
10511;SDS011;5304;48.604;2.096;2022-09-09T04:41:56;6.77;;;2.90;;
10511;SDS011;5304;48.604;2.096;2022-09-09T04:44:40;13.83;;;3.33;;
10511;SDS011;5304;48.604;2.096;2022-09-09T04:47:24;8.30;;;3.30;;
10511;SDS011;5304;48.604;2.096;2022-09-09T04:50:09;10.83;;;3.67;;
10511;SDS011;5304;48.604;2.096;2022-09-09T04:52:53;10.90;;;3.03;;
10511;SDS011;5304;48.604;2.096;2022-09-09T04:55:38;14.57;;;3.00;;
10511;SDS011;5304;48.604;2.096;2022-09-09T04:58:22;12.73;;;2.90;;
10511;SDS011;5304;48.604;2.096;2022-09-09T05:01:08;12.67;;;3.07;;
10511;SDS011;5304;48.604;2.096;2022-09-09T05:03:57;9.93;;;3.17;;
10511;SDS011;5304;48.604;2.096;2022-09-09T05:06:41;12.37;;;3.20;;
10511;SDS011;5304;48.604;2.096;2022-09-09T05:09:26;10.80;;;2.60;;
10511;SDS011;5304;48.604;2.096;2022-09-09T05:12:10;12.97;;;3.63;;
10511;SDS011;5304;48.604;2.096;2022-09-09T05:14:55;11.93;;;3.13;;
10511;SDS011;5304;48.604;2.096;2022-09-09T05:17:41;9.60;;;2.50;;
10511;SDS011;5304;48.604;2.096;2022-09-09T05:20:26;10.70;;;2.97;;
10511;SDS011;5304;48.604;2.096;2022-09-09T05:23:11;10.77;;;3.27;;
10511;SDS011;5304;48.604;2.096;2022-09-09T05:25:57;10.00;;;2.90;;
10511;SDS011;5304;48.604;2.096;2022-09-09T05:28:42;13.07;;;3.00;;
10511;SDS011;5304;48.604;2.096;2022-09-09T05:31:29;11.80;;;2.73;;
10511;SDS011;5304;48.604;2.096;2022-09-09T05:34:14;11.17;;;3.23;;
10511;SDS011;5304;48.604;2.096;2022-09-09T05:36:58;9.27;;;3.07;;
10511;SDS011;5304;48.604;2.096;2022-09-09T05:39:42;15.13;;;3.70;;
10511;SDS011;5304;48.604;2.096;2022-09-09T05:42:30;12.90;;;3.37;;
10511;SDS011;5304;48.604;2.096;2022-09-09T05:45:16;11.37;;;3.27;;
10511;SDS011;5304;48.604;2.096;2022-09-09T05:48:01;6.27;;;2.63;;
10511;SDS011;5304;48.604;2.096;2022-09-09T05:50:52;9.23;;;3.13;;
10511;SDS011;5304;48.604;2.096;2022-09-09T05:53:37;9.17;;;2.77;;
10511;SDS011;5304;48.604;2.096;2022-09-09T05:56:22;9.30;;;2.73;;
10511;SDS011;5304;48.604;2.096;2022-09-09T05:59:09;6.03;;;2.77;;
10511;SDS011;5304;48.604;2.096;2022-09-09T06:01:53;10.13;;;3.07;;
10511;SDS011;5304;48.604;2.096;2022-09-09T06:04:38;8.30;;;2.97;;
10511;SDS011;5304;48.604;2.096;2022-09-09T06:07:23;6.47;;;2.80;;
10511;SDS011;5304;48.604;2.096;2022-09-09T06:10:07;6.37;;;2.83;;
10511;SDS011;5304;48.604;2.096;2022-09-09T06:12:52;9.63;;;3.07;;
10511;SDS011;5304;48.604;2.096;2022-09-09T06:15:37;11.83;;;2.60;;
10511;SDS011;5304;48.604;2.096;2022-09-09T06:18:21;8.83;;;2.93;;
10511;SDS011;5304;48.604;2.096;2022-09-09T06:21:07;13.10;;;3.37;;
10511;SDS011;5304;48.604;2.096;2022-09-09T06:23:56;10.70;;;2.93;;
10511;SDS011;5304;48.604;2.096;2022-09-09T06:26:41;9.00;;;3.07;;
10511;SDS011;5304;48.604;2.096;2022-09-09T06:29:26;7.60;;;2.60;;
10511;SDS011;5304;48.604;2.096;2022-09-09T06:32:10;13.03;;;2.93;;
10511;SDS011;5304;48.604;2.096;2022-09-09T06:34:54;13.87;;;3.07;;
10511;SDS011;5304;48.604;2.096;2022-09-09T06:37:39;7.23;;;2.37;;
10511;SDS011;5304;48.604;2.096;2022-09-09T06:40:23;11.07;;;2.80;;
10511;SDS011;5304;48.604;2.096;2022-09-09T06:43:09;15.23;;;2.80;;
10511;SDS011;5304;48.604;2.096;2022-09-09T06:45:57;7.53;;;2.63;;
10511;SDS011;5304;48.604;2.096;2022-09-09T06:48:43;12.97;;;2.77;;
10511;SDS011;5304;48.604;2.096;2022-09-09T06:51:29;6.83;;;2.57;;
10511;SDS011;5304;48.604;2.096;2022-09-09T06:54:15;9.10;;;2.60;;
10511;SDS011;5304;48.604;2.096;2022-09-09T06:56:59;9.20;;;2.50;;
10511;SDS011;5304;48.604;2.096;2022-09-09T06:59:45;6.83;;;2.00;;
10511;SDS011;5304;48.604;2.096;2022-09-09T07:02:29;9.17;;;2.00;;
10511;SDS011;5304;48.604;2.096;2022-09-09T07:05:15;8.05;;;1.80;;
10511;SDS011;5304;48.604;2.096;2022-09-09T07:08:00;5.65;;;1.63;;
10511;SDS011;5304;48.604;2.096;2022-09-09T07:10:45;6.88;;;1.88;;
10511;SDS011;5304;48.604;2.096;2022-09-09T07:13:29;5.20;;;1.70;;
10511;SDS011;5304;48.604;2.096;2022-09-09T07:16:18;4.80;;;1.63;;
10511;SDS011;5304;48.604;2.096;2022-09-09T07:19:04;4.65;;;1.35;;
10511;SDS011;5304;48.604;2.096;2022-09-09T07:21:48;6.40;;;1.80;;
10511;SDS011;5304;48.604;2.096;2022-09-09T07:24:33;6.45;;;1.90;;
10511;SDS011;5304;48.604;2.096;2022-09-09T07:27:17;5.55;;;1.45;;
10511;SDS011;5304;48.604;2.096;2022-09-09T07:30:02;6.75;;;1.88;;
10511;SDS011;5304;48.604;2.096;2022-09-09T07:32:47;8.07;;;1.90;;
10511;SDS011;5304;48.604;2.096;2022-09-09T07:35:32;6.35;;;1.67;;
10511;SDS011;5304;48.604;2.096;2022-09-09T07:38:17;5.75;;;1.77;;
10511;SDS011;5304;48.604;2.096;2022-09-09T07:41:03;5.32;;;1.80;;
10511;SDS011;5304;48.604;2.096;2022-09-09T07:43:49;5.47;;;1.83;;
10511;SDS011;5304;48.604;2.096;2022-09-09T07:46:35;5.22;;;1.80;;
10511;SDS011;5304;48.604;2.096;2022-09-09T07:49:20;7.13;;;1.70;;
10511;SDS011;5304;48.604;2.096;2022-09-09T07:52:04;7.10;;;1.77;;
10511;SDS011;5304;48.604;2.096;2022-09-09T07:54:49;4.70;;;1.98;;
10511;SDS011;5304;48.604;2.096;2022-09-09T07:57:33;6.65;;;2.03;;
10511;SDS011;5304;48.604;2.096;2022-09-09T08:00:18;5.43;;;1.67;;
10511;SDS011;5304;48.604;2.096;2022-09-09T08:03:04;5.60;;;1.88;;
10511;SDS011;5304;48.604;2.096;2022-09-09T08:05:49;4.97;;;1.92;;
10511;SDS011;5304;48.604;2.096;2022-09-09T08:08:34;5.60;;;1.70;;
10511;SDS011;5304;48.604;2.096;2022-09-09T08:11:19;12.00;;;2.07;;
10511;SDS011;5304;48.604;2.096;2022-09-09T08:14:07;4.27;;;1.60;;
10511;SDS011;5304;48.604;2.096;2022-09-09T08:16:53;6.33;;;2.10;;
10511;SDS011;5304;48.604;2.096;2022-09-09T08:19:37;5.47;;;2.03;;
10511;SDS011;5304;48.604;2.096;2022-09-09T08:22:22;4.93;;;1.77;;
10511;SDS011;5304;48.604;2.096;2022-09-09T08:25:08;10.70;;;2.30;;
10511;SDS011;5304;48.604;2.096;2022-09-09T08:27:54;6.37;;;2.00;;
10511;SDS011;5304;48.604;2.096;2022-09-09T08:30:39;7.57;;;1.77;;
10511;SDS011;5304;48.604;2.096;2022-09-09T08:33:23;6.60;;;1.83;;
10511;SDS011;5304;48.604;2.096;2022-09-09T08:36:09;10.77;;;1.90;;
10511;SDS011;5304;48.604;2.096;2022-09-09T08:38:56;7.77;;;1.80;;
10511;SDS011;5304;48.604;2.096;2022-09-09T08:45:25;2.70;;;1.50;;
10511;SDS011;5304;48.604;2.096;2022-09-09T08:48:19;4.95;;;1.75;;
10511;SDS011;5304;48.604;2.096;2022-09-09T08:51:06;4.28;;;1.67;;
10511;SDS011;5304;48.604;2.096;2022-09-09T08:53:52;5.10;;;1.60;;
10511;SDS011;5304;48.604;2.096;2022-09-09T08:56:38;6.35;;;1.73;;
10511;SDS011;5304;48.604;2.096;2022-09-09T08:59:23;3.87;;;1.70;;
10511;SDS011;5304;48.604;2.096;2022-09-09T09:11:21;4.50;;;1.57;;
10511;SDS011;5304;48.604;2.096;2022-09-09T09:14:16;7.27;;;1.70;;
10511;SDS011;5304;48.604;2.096;2022-09-09T09:17:09;5.07;;;1.57;;
10511;SDS011;5304;48.604;2.096;2022-09-09T09:19:57;3.53;;;1.57;;
10511;SDS011;5304;48.604;2.096;2022-09-09T09:25:38;5.57;;;1.70;;
10511;SDS011;5304;48.604;2.096;2022-09-09T09:28:27;7.97;;;2.10;;
10511;SDS011;5304;48.604;2.096;2022-09-09T09:31:14;6.60;;;1.63;;
10511;SDS011;5304;48.604;2.096;2022-09-09T09:33:59;8.60;;;1.70;;
10511;SDS011;5304;48.604;2.096;2022-09-09T09:36:44;5.27;;;1.70;;
10511;SDS011;5304;48.604;2.096;2022-09-09T09:39:36;5.13;;;1.87;;
10511;SDS011;5304;48.604;2.096;2022-09-09T09:42:21;4.57;;;1.50;;
10511;SDS011;5304;48.604;2.096;2022-09-09T09:45:08;3.10;;;1.83;;
10511;SDS011;5304;48.604;2.096;2022-09-09T09:48:05;6.33;;;2.07;;
10511;SDS011;5304;48.604;2.096;2022-09-09T09:50:57;8.00;;;2.27;;
10511;SDS011;5304;48.604;2.096;2022-09-09T09:53:44;3.63;;;1.87;;
10511;SDS011;5304;48.604;2.096;2022-09-09T09:56:29;7.40;;;1.80;;
10511;SDS011;5304;48.604;2.096;2022-09-09T10:02:21;6.97;;;2.73;;
10511;SDS011;5304;48.604;2.096;2022-09-09T10:08:02;8.67;;;2.00;;
10511;SDS011;5304;48.604;2.096;2022-09-09T10:10:51;3.80;;;1.67;;
10511;SDS011;5304;48.604;2.096;2022-09-09T10:19:34;4.83;;;1.60;;
10511;SDS011;5304;48.604;2.096;2022-09-09T10:25:17;3.20;;;1.43;;
10511;SDS011;5304;48.604;2.096;2022-09-09T10:28:29;4.27;;;1.60;;
10511;SDS011;5304;48.604;2.096;2022-09-09T10:34:43;4.80;;;1.53;;
10511;SDS011;5304;48.604;2.096;2022-09-09T10:41:05;4.37;;;1.33;;
10511;SDS011;5304;48.604;2.096;2022-09-09T10:44:29;4.97;;;2.00;;
10511;SDS011;5304;48.604;2.096;2022-09-09T10:47:28;3.60;;;1.90;;
10511;SDS011;5304;48.604;2.096;2022-09-09T10:53:18;4.17;;;1.40;;
10511;SDS011;5304;48.604;2.096;2022-09-09T10:56:14;5.33;;;1.70;;
10511;SDS011;5304;48.604;2.096;2022-09-09T10:59:07;8.80;;;1.70;;
10511;SDS011;5304;48.604;2.096;2022-09-09T11:02:03;3.73;;;1.77;;
10511;SDS011;5304;48.604;2.096;2022-09-09T11:05:04;4.27;;;1.80;;
10511;SDS011;5304;48.604;2.096;2022-09-09T11:08:03;5.90;;;1.90;;
10511;SDS011;5304;48.604;2.096;2022-09-09T11:11:04;2.73;;;1.50;;
10511;SDS011;5304;48.604;2.096;2022-09-09T11:16:40;3.58;;;1.50;;
10511;SDS011;5304;48.604;2.096;2022-09-09T11:25:21;6.32;;;1.63;;
10511;SDS011;5304;48.604;2.096;2022-09-09T11:28:58;2.70;;;1.25;;
10511;SDS011;5304;48.604;2.096;2022-09-09T11:31:53;3.10;;;1.30;;
10511;SDS011;5304;48.604;2.096;2022-09-09T11:34:56;4.63;;;1.60;;
10511;SDS011;5304;48.604;2.096;2022-09-09T11:41:02;5.35;;;1.42;;
10511;SDS011;5304;48.604;2.096;2022-09-09T11:43:51;6.70;;;1.40;;
10511;SDS011;5304;48.604;2.096;2022-09-09T11:46:37;4.55;;;1.58;;
10511;SDS011;5304;48.604;2.096;2022-09-09T11:49:26;4.60;;;1.70;;
10511;SDS011;5304;48.604;2.096;2022-09-09T11:52:23;6.68;;;1.50;;
10511;SDS011;5304;48.604;2.096;2022-09-09T11:55:28;3.90;;;1.70;;
10511;SDS011;5304;48.604;2.096;2022-09-09T11:58:21;6.30;;;1.52;;
10511;SDS011;5304;48.604;2.096;2022-09-09T12:01:26;5.38;;;1.55;;
10511;SDS011;5304;48.604;2.096;2022-09-09T12:04:21;3.10;;;1.50;;
10511;SDS011;5304;48.604;2.096;2022-09-09T12:07:40;5.50;;;1.58;;
10511;SDS011;5304;48.604;2.096;2022-09-09T12:10:30;5.90;;;1.55;;
10511;SDS011;5304;48.604;2.096;2022-09-09T12:13:20;4.80;;;1.63;;
10511;SDS011;5304;48.604;2.096;2022-09-09T12:16:26;4.13;;;1.65;;
10511;SDS011;5304;48.604;2.096;2022-09-09T12:19:21;4.13;;;1.52;;
10511;SDS011;5304;48.604;2.096;2022-09-09T12:22:07;4.40;;;1.60;;
10511;SDS011;5304;48.604;2.096;2022-09-09T12:33:44;6.05;;;1.63;;
10511;SDS011;5304;48.604;2.096;2022-09-09T12:36:31;6.22;;;1.50;;
10511;SDS011;5304;48.604;2.096;2022-09-09T12:39:37;13.10;;;1.80;;
10511;SDS011;5304;48.604;2.096;2022-09-09T12:42:26;6.25;;;1.85;;
10511;SDS011;5304;48.604;2.096;2022-09-09T12:45:18;4.65;;;1.50;;
10511;SDS011;5304;48.604;2.096;2022-09-09T12:48:05;3.78;;;1.50;;
10511;SDS011;5304;48.604;2.096;2022-09-09T12:50:55;3.13;;;1.50;;
10511;SDS011;5304;48.604;2.096;2022-09-09T12:53:41;6.32;;;1.75;;
10511;SDS011;5304;48.604;2.096;2022-09-09T12:56:26;3.47;;;1.23;;
10511;SDS011;5304;48.604;2.096;2022-09-09T12:59:22;3.72;;;1.50;;
10511;SDS011;5304;48.604;2.096;2022-09-09T13:02:14;3.80;;;1.25;;
10511;SDS011;5304;48.604;2.096;2022-09-09T13:05:23;11.13;;;1.85;;
10511;SDS011;5304;48.604;2.096;2022-09-09T13:08:09;5.57;;;1.50;;
10511;SDS011;5304;48.604;2.096;2022-09-09T13:10:57;5.28;;;1.52;;
10511;SDS011;5304;48.604;2.096;2022-09-09T13:13:48;2.72;;;1.35;;
10511;SDS011;5304;48.604;2.096;2022-09-09T13:16:35;7.32;;;1.58;;
10511;SDS011;5304;48.604;2.096;2022-09-09T13:19:20;11.98;;;2.47;;
10511;SDS011;5304;48.604;2.096;2022-09-09T13:22:12;6.50;;;1.83;;
10511;SDS011;5304;48.604;2.096;2022-09-09T13:24:59;5.13;;;1.90;;
10511;SDS011;5304;48.604;2.096;2022-09-09T13:27:53;5.80;;;1.90;;
10511;SDS011;5304;48.604;2.096;2022-09-09T13:30:58;4.70;;;1.90;;
10511;SDS011;5304;48.604;2.096;2022-09-09T13:33:44;3.20;;;1.70;;
10511;SDS011;5304;48.604;2.096;2022-09-09T13:36:29;4.03;;;1.70;;
10511;SDS011;5304;48.604;2.096;2022-09-09T13:39:16;7.43;;;1.83;;
10511;SDS011;5304;48.604;2.096;2022-09-09T13:42:03;5.67;;;1.80;;
10511;SDS011;5304;48.604;2.096;2022-09-09T13:44:48;7.07;;;2.13;;
10511;SDS011;5304;48.604;2.096;2022-09-09T13:47:35;4.93;;;1.90;;
10511;SDS011;5304;48.604;2.096;2022-09-09T13:50:28;6.30;;;2.10;;
10511;SDS011;5304;48.604;2.096;2022-09-09T13:53:13;5.17;;;2.17;;
10511;SDS011;5304;48.604;2.096;2022-09-09T13:55:57;7.27;;;2.10;;
10511;SDS011;5304;48.604;2.096;2022-09-09T13:58:42;7.37;;;2.10;;
10511;SDS011;5304;48.604;2.096;2022-09-09T14:01:27;5.43;;;2.00;;
10511;SDS011;5304;48.604;2.096;2022-09-09T14:04:11;9.33;;;2.20;;
10511;SDS011;5304;48.604;2.096;2022-09-09T14:06:56;6.83;;;2.10;;
10511;SDS011;5304;48.604;2.096;2022-09-09T14:09:41;7.15;;;1.88;;
10511;SDS011;5304;48.604;2.096;2022-09-09T14:12:26;6.38;;;2.05;;
10511;SDS011;5304;48.604;2.096;2022-09-09T14:15:11;6.47;;;1.75;;
10511;SDS011;5304;48.604;2.096;2022-09-09T14:17:56;6.23;;;2.10;;
10511;SDS011;5304;48.604;2.096;2022-09-09T14:20:43;5.80;;;1.77;;
10511;SDS011;5304;48.604;2.096;2022-09-09T14:23:28;4.20;;;1.63;;
10511;SDS011;5304;48.604;2.096;2022-09-09T14:26:12;5.40;;;1.90;;
10511;SDS011;5304;48.604;2.096;2022-09-09T14:28:57;4.23;;;1.97;;
10511;SDS011;5304;48.604;2.096;2022-09-09T14:31:42;6.03;;;2.07;;
10511;SDS011;5304;48.604;2.096;2022-09-09T14:34:27;4.80;;;1.80;;
10511;SDS011;5304;48.604;2.096;2022-09-09T14:37:11;6.90;;;1.90;;
10511;SDS011;5304;48.604;2.096;2022-09-09T14:39:56;5.97;;;1.97;;
10511;SDS011;5304;48.604;2.096;2022-09-09T14:42:41;4.70;;;1.93;;
10511;SDS011;5304;48.604;2.096;2022-09-09T14:45:25;4.30;;;2.27;;
10511;SDS011;5304;48.604;2.096;2022-09-09T14:48:10;4.63;;;1.90;;
10511;SDS011;5304;48.604;2.096;2022-09-09T14:50:55;5.93;;;1.70;;
10511;SDS011;5304;48.604;2.096;2022-09-09T14:53:42;3.97;;;1.63;;
10511;SDS011;5304;48.604;2.096;2022-09-09T14:56:28;5.10;;;1.80;;
10511;SDS011;5304;48.604;2.096;2022-09-09T14:59:13;6.20;;;1.83;;
10511;SDS011;5304;48.604;2.096;2022-09-09T15:01:58;5.10;;;2.07;;
10511;SDS011;5304;48.604;2.096;2022-09-09T15:04:47;4.00;;;1.77;;
10511;SDS011;5304;48.604;2.096;2022-09-09T15:07:33;4.13;;;1.83;;
10511;SDS011;5304;48.604;2.096;2022-09-09T15:10:18;3.97;;;1.53;;
10511;SDS011;5304;48.604;2.096;2022-09-09T15:13:02;4.63;;;1.50;;
10511;SDS011;5304;48.604;2.096;2022-09-09T15:15:46;2.53;;;1.67;;
10511;SDS011;5304;48.604;2.096;2022-09-09T15:18:33;5.43;;;1.80;;
10511;SDS011;5304;48.604;2.096;2022-09-09T15:21:21;6.40;;;1.63;;
10511;SDS011;5304;48.604;2.096;2022-09-09T15:24:07;4.57;;;1.70;;
10511;SDS011;5304;48.604;2.096;2022-09-09T15:26:52;4.97;;;1.33;;
10511;SDS011;5304;48.604;2.096;2022-09-09T15:29:37;3.07;;;1.50;;
10511;SDS011;5304;48.604;2.096;2022-09-09T15:32:22;6.77;;;1.70;;
10511;SDS011;5304;48.604;2.096;2022-09-09T15:35:07;2.97;;;1.20;;
10511;SDS011;5304;48.604;2.096;2022-09-09T15:37:51;3.97;;;1.50;;
10511;SDS011;5304;48.604;2.096;2022-09-09T15:40:36;3.27;;;1.33;;
10511;SDS011;5304;48.604;2.096;2022-09-09T15:43:21;3.50;;;1.23;;
10511;SDS011;5304;48.604;2.096;2022-09-09T15:49:09;3.73;;;1.40;;
10511;SDS011;5304;48.604;2.096;2022-09-09T15:51:56;5.67;;;1.40;;
10511;SDS011;5304;48.604;2.096;2022-09-09T15:54:42;1.63;;;1.30;;
10511;SDS011;5304;48.604;2.096;2022-09-09T15:57:27;2.77;;;1.20;;
10511;SDS011;5304;48.604;2.096;2022-09-09T16:00:11;1.67;;;1.00;;
10511;SDS011;5304;48.604;2.096;2022-09-09T16:02:57;1.30;;;0.90;;
10511;SDS011;5304;48.604;2.096;2022-09-09T16:05:42;2.50;;;0.90;;
10511;SDS011;5304;48.604;2.096;2022-09-09T16:08:37;1.43;;;1.00;;
10511;SDS011;5304;48.604;2.096;2022-09-09T16:11:25;1.17;;;1.00;;
10511;SDS011;5304;48.604;2.096;2022-09-09T16:14:11;1.40;;;0.83;;
10511;SDS011;5304;48.604;2.096;2022-09-09T16:16:55;2.77;;;1.10;;
10511;SDS011;5304;48.604;2.096;2022-09-09T16:19:40;1.10;;;0.80;;
10511;SDS011;5304;48.604;2.096;2022-09-09T16:22:24;3.83;;;1.40;;
10511;SDS011;5304;48.604;2.096;2022-09-09T16:25:08;2.80;;;1.30;;
10511;SDS011;5304;48.604;2.096;2022-09-09T16:27:53;5.50;;;1.67;;
10511;SDS011;5304;48.604;2.096;2022-09-09T16:30:38;6.30;;;1.17;;
10511;SDS011;5304;48.604;2.096;2022-09-09T16:33:22;2.50;;;1.17;;
10511;SDS011;5304;48.604;2.096;2022-09-09T16:36:07;5.53;;;1.50;;
10511;SDS011;5304;48.604;2.096;2022-09-09T16:38:57;2.10;;;1.30;;
10511;SDS011;5304;48.604;2.096;2022-09-09T16:41:43;2.53;;;1.20;;
10511;SDS011;5304;48.604;2.096;2022-09-09T16:44:28;3.90;;;1.13;;
10511;SDS011;5304;48.604;2.096;2022-09-09T16:47:13;1.87;;;1.00;;
10511;SDS011;5304;48.604;2.096;2022-09-09T16:49:58;3.10;;;1.03;;
10511;SDS011;5304;48.604;2.096;2022-09-09T16:52:43;2.00;;;1.10;;
10511;SDS011;5304;48.604;2.096;2022-09-09T16:55:27;0.90;;;0.90;;
10511;SDS011;5304;48.604;2.096;2022-09-09T16:58:13;2.80;;;1.23;;
10511;SDS011;5304;48.604;2.096;2022-09-09T17:00:58;1.73;;;0.93;;
10511;SDS011;5304;48.604;2.096;2022-09-09T17:03:43;2.23;;;1.27;;
10511;SDS011;5304;48.604;2.096;2022-09-09T17:06:29;5.93;;;1.53;;
10511;SDS011;5304;48.604;2.096;2022-09-09T17:09:14;6.10;;;1.80;;
10511;SDS011;5304;48.604;2.096;2022-09-09T17:11:59;4.50;;;1.17;;
10511;SDS011;5304;48.604;2.096;2022-09-09T17:14:44;3.83;;;1.40;;
10511;SDS011;5304;48.604;2.096;2022-09-09T17:17:29;3.53;;;1.20;;
10511;SDS011;5304;48.604;2.096;2022-09-09T17:20:13;2.93;;;1.07;;
10511;SDS011;5304;48.604;2.096;2022-09-09T17:22:58;3.33;;;1.30;;
10511;SDS011;5304;48.604;2.096;2022-09-09T17:25:43;3.07;;;1.30;;
10511;SDS011;5304;48.604;2.096;2022-09-09T17:28:29;2.13;;;1.37;;
10511;SDS011;5304;48.604;2.096;2022-09-09T17:31:16;3.53;;;1.70;;
10511;SDS011;5304;48.604;2.096;2022-09-09T17:34:01;1.67;;;1.37;;
10511;SDS011;5304;48.604;2.096;2022-09-09T17:36:47;3.07;;;1.50;;
10511;SDS011;5304;48.604;2.096;2022-09-09T17:39:32;4.37;;;1.50;;
10511;SDS011;5304;48.604;2.096;2022-09-09T17:42:17;3.63;;;1.80;;
10511;SDS011;5304;48.604;2.096;2022-09-09T17:45:02;2.47;;;1.77;;
10511;SDS011;5304;48.604;2.096;2022-09-09T17:47:47;1.33;;;1.20;;
10511;SDS011;5304;48.604;2.096;2022-09-09T17:50:33;2.83;;;1.33;;
10511;SDS011;5304;48.604;2.096;2022-09-09T17:53:17;6.70;;;1.97;;
10511;SDS011;5304;48.604;2.096;2022-09-09T17:56:03;1.97;;;1.63;;
10511;SDS011;5304;48.604;2.096;2022-09-09T17:58:49;4.93;;;1.40;;
10511;SDS011;5304;48.604;2.096;2022-09-09T18:01:35;3.33;;;1.47;;
10511;SDS011;5304;48.604;2.096;2022-09-09T18:04:22;5.33;;;1.57;;
10511;SDS011;5304;48.604;2.096;2022-09-09T18:07:06;5.77;;;1.73;;
10511;SDS011;5304;48.604;2.096;2022-09-09T18:09:51;2.13;;;1.50;;
10511;SDS011;5304;48.604;2.096;2022-09-09T18:12:35;2.63;;;1.43;;
10511;SDS011;5304;48.604;2.096;2022-09-09T18:15:20;4.33;;;1.70;;
10511;SDS011;5304;48.604;2.096;2022-09-09T18:18:05;4.13;;;1.90;;
10511;SDS011;5304;48.604;2.096;2022-09-09T18:21:01;4.33;;;1.60;;
10511;SDS011;5304;48.604;2.096;2022-09-09T18:23:49;4.43;;;1.57;;
10511;SDS011;5304;48.604;2.096;2022-09-09T18:26:35;4.97;;;1.53;;
10511;SDS011;5304;48.604;2.096;2022-09-09T18:29:20;3.17;;;1.63;;
10511;SDS011;5304;48.604;2.096;2022-09-09T18:32:08;4.47;;;1.80;;
10511;SDS011;5304;48.604;2.096;2022-09-09T18:34:52;4.90;;;1.90;;
10511;SDS011;5304;48.604;2.096;2022-09-09T18:37:38;3.83;;;1.80;;
10511;SDS011;5304;48.604;2.096;2022-09-09T18:40:23;7.67;;;1.83;;
10511;SDS011;5304;48.604;2.096;2022-09-09T18:43:08;3.67;;;1.63;;
10511;SDS011;5304;48.604;2.096;2022-09-09T18:45:54;5.17;;;1.90;;
10511;SDS011;5304;48.604;2.096;2022-09-09T18:48:39;2.33;;;1.47;;
10511;SDS011;5304;48.604;2.096;2022-09-09T18:51:24;5.63;;;1.87;;
10511;SDS011;5304;48.604;2.096;2022-09-09T18:54:14;4.37;;;2.00;;